sensor_id;sensor_type;location;lat;lon;timestamp;pressure;altitude;pressure_sealevel;temperature;humidity
46714;BME280;32445;51.376;10.874;2022-09-29T00:01:48;97899.22;;;8.94;53.73
46714;BME280;32445;51.376;10.874;2022-09-29T00:04:49;97899.44;;;8.90;53.52
46714;BME280;32445;51.376;10.874;2022-09-29T00:07:49;97895.25;;;8.87;53.36
46714;BME280;32445;51.376;10.874;2022-09-29T00:10:49;97891.09;;;8.83;53.50
46714;BME280;32445;51.376;10.874;2022-09-29T00:13:50;97894.66;;;8.80;53.31
46714;BME280;32445;51.376;10.874;2022-09-29T00:16:50;97896.56;;;8.77;53.44
46714;BME280;32445;51.376;10.874;2022-09-29T00:19:52;97899.19;;;8.75;53.92
46714;BME280;32445;51.376;10.874;2022-09-29T00:22:52;97895.09;;;8.71;53.22
46714;BME280;32445;51.376;10.874;2022-09-29T00:26:03;97893.53;;;8.67;53.92
46714;BME280;32445;51.376;10.874;2022-09-29T00:29:04;97897.84;;;8.66;53.52
46714;BME280;32445;51.376;10.874;2022-09-29T00:32:04;97896.28;;;8.64;53.19
46714;BME280;32445;51.376;10.874;2022-09-29T00:35:05;97886.97;;;8.60;53.67
46714;BME280;32445;51.376;10.874;2022-09-29T00:38:07;97893.94;;;8.58;53.54
46714;BME280;32445;51.376;10.874;2022-09-29T00:41:15;97890.66;;;8.54;53.61
46714;BME280;32445;51.376;10.874;2022-09-29T00:47:18;97887.41;;;8.49;53.66
46714;BME280;32445;51.376;10.874;2022-09-29T00:50:24;97885.88;;;8.45;53.54
46714;BME280;32445;51.376;10.874;2022-09-29T00:53:27;97888.56;;;8.42;53.23
46714;BME280;32445;51.376;10.874;2022-09-29T00:56:29;97888.69;;;8.39;53.62
46714;BME280;32445;51.376;10.874;2022-09-29T01:02:53;97882.09;;;8.31;53.74
46714;BME280;32445;51.376;10.874;2022-09-29T01:05:59;97882.25;;;8.28;53.31
46714;BME280;32445;51.376;10.874;2022-09-29T01:09:02;97878.09;;;8.24;53.40
46714;BME280;32445;51.376;10.874;2022-09-29T01:12:03;97879.06;;;8.22;53.33
46714;BME280;32445;51.376;10.874;2022-09-29T01:15:04;97870.63;;;8.18;53.57
46714;BME280;32445;51.376;10.874;2022-09-29T01:18:05;97878.47;;;8.15;53.30
46714;BME280;32445;51.376;10.874;2022-09-29T01:34:53;97892.91;;;8.00;53.53
46714;BME280;32445;51.376;10.874;2022-09-29T01:41:26;97890.59;;;7.94;53.31
46714;BME280;32445;51.376;10.874;2022-09-29T01:44:32;97906.09;;;7.94;53.60
46714;BME280;32445;51.376;10.874;2022-09-29T01:47:40;97903.63;;;7.91;53.92
46714;BME280;32445;51.376;10.874;2022-09-29T01:50:45;97903.66;;;7.89;53.57
46714;BME280;32445;51.376;10.874;2022-09-29T01:53:49;97896.03;;;7.86;53.29
46714;BME280;32445;51.376;10.874;2022-09-29T01:56:55;97899.56;;;7.85;53.81
46714;BME280;32445;51.376;10.874;2022-09-29T02:00:13;97899.66;;;7.82;53.90
46714;BME280;32445;51.376;10.874;2022-09-29T02:06:39;97899.00;;;7.77;53.68
46714;BME280;32445;51.376;10.874;2022-09-29T02:09:45;97899.97;;;7.74;53.32
46714;BME280;32445;51.376;10.874;2022-09-29T02:12:49;97908.75;;;7.70;53.56
46714;BME280;32445;51.376;10.874;2022-09-29T02:15:54;97905.41;;;7.68;53.65
46714;BME280;32445;51.376;10.874;2022-09-29T02:19:01;97909.81;;;7.65;54.02
46714;BME280;32445;51.376;10.874;2022-09-29T02:22:04;97913.31;;;7.63;53.57
46714;BME280;32445;51.376;10.874;2022-09-29T02:25:08;97912.59;;;7.60;53.83
46714;BME280;32445;51.376;10.874;2022-09-29T02:28:10;97907.56;;;7.57;53.85
46714;BME280;32445;51.376;10.874;2022-09-29T02:31:12;97909.34;;;7.55;53.75
46714;BME280;32445;51.376;10.874;2022-09-29T02:34:15;97913.75;;;7.53;53.46
46714;BME280;32445;51.376;10.874;2022-09-29T02:40:58;97912.31;;;7.45;53.72
46714;BME280;32445;51.376;10.874;2022-09-29T03:03:08;97940.44;;;7.30;53.45
46714;BME280;32445;51.376;10.874;2022-09-29T03:06:09;97933.66;;;7.27;53.72
46714;BME280;32445;51.376;10.874;2022-09-29T03:09:10;97932.88;;;7.25;53.71
46714;BME280;32445;51.376;10.874;2022-09-29T03:12:10;97932.09;;;7.23;53.49
46714;BME280;32445;51.376;10.874;2022-09-29T03:15:11;97936.47;;;7.21;53.68
46714;BME280;32445;51.376;10.874;2022-09-29T03:18:12;97930.53;;;7.19;53.67
46714;BME280;32445;51.376;10.874;2022-09-29T03:21:12;97934.00;;;7.18;53.81
46714;BME280;32445;51.376;10.874;2022-09-29T03:24:12;97937.56;;;7.15;53.92
46714;BME280;32445;51.376;10.874;2022-09-29T03:27:13;97942.72;;;7.15;54.13
46714;BME280;32445;51.376;10.874;2022-09-29T03:30:13;97935.84;;;7.14;54.06
46714;BME280;32445;51.376;10.874;2022-09-29T03:33:14;97936.75;;;7.13;54.14
46714;BME280;32445;51.376;10.874;2022-09-29T03:36:14;97935.03;;;7.14;53.82
46714;BME280;32445;51.376;10.874;2022-09-29T03:39:14;97939.31;;;7.13;54.21
46714;BME280;32445;51.376;10.874;2022-09-29T03:42:15;97937.66;;;7.12;54.12
46714;BME280;32445;51.376;10.874;2022-09-29T03:45:15;97934.28;;;7.10;53.83
46714;BME280;32445;51.376;10.874;2022-09-29T03:48:17;97942.25;;;7.04;53.79
46714;BME280;32445;51.376;10.874;2022-09-29T03:51:17;97944.97;;;7.01;53.96
46714;BME280;32445;51.376;10.874;2022-09-29T03:54:18;97952.75;;;6.99;53.90
46714;BME280;32445;51.376;10.874;2022-09-29T03:57:18;97951.00;;;7.00;53.86
46714;BME280;32445;51.376;10.874;2022-09-29T04:00:18;97951.84;;;7.00;53.93
46714;BME280;32445;51.376;10.874;2022-09-29T04:03:19;97956.16;;;7.00;53.79
46714;BME280;32445;51.376;10.874;2022-09-29T04:06:20;97952.69;;;7.01;54.34
46714;BME280;32445;51.376;10.874;2022-09-29T04:09:20;97951.00;;;7.00;54.23
46714;BME280;32445;51.376;10.874;2022-09-29T04:12:20;97961.31;;;7.00;54.21
46714;BME280;32445;51.376;10.874;2022-09-29T04:15:21;97957.13;;;6.97;54.13
46714;BME280;32445;51.376;10.874;2022-09-29T04:18:21;97969.13;;;6.98;54.35
46714;BME280;32445;51.376;10.874;2022-09-29T04:21:22;97962.28;;;6.97;54.36
46714;BME280;32445;51.376;10.874;2022-09-29T04:24:22;97965.69;;;6.98;54.27
46714;BME280;32445;51.376;10.874;2022-09-29T04:27:22;97960.53;;;6.98;54.27
46714;BME280;32445;51.376;10.874;2022-09-29T04:30:23;97959.69;;;6.97;54.52
46714;BME280;32445;51.376;10.874;2022-09-29T04:33:23;97965.69;;;6.98;54.17
46714;BME280;32445;51.376;10.874;2022-09-29T04:36:23;97973.41;;;6.98;54.52
46714;BME280;32445;51.376;10.874;2022-09-29T04:39:24;97970.06;;;6.96;54.32
46714;BME280;32445;51.376;10.874;2022-09-29T04:42:25;97977.75;;;6.97;54.26
46714;BME280;32445;51.376;10.874;2022-09-29T04:45:25;97974.34;;;6.97;54.30
46714;BME280;32445;51.376;10.874;2022-09-29T04:48:26;97978.69;;;6.95;54.61
46714;BME280;32445;51.376;10.874;2022-09-29T04:51:26;97972.72;;;6.94;54.51
46714;BME280;32445;51.376;10.874;2022-09-29T04:54:31;97978.69;;;6.95;54.08
46714;BME280;32445;51.376;10.874;2022-09-29T04:57:32;97979.63;;;6.93;54.58
46714;BME280;32445;51.376;10.874;2022-09-29T05:00:32;97982.25;;;6.92;54.45
46714;BME280;32445;51.376;10.874;2022-09-29T05:03:34;97990.81;;;6.92;54.36
46714;BME280;32445;51.376;10.874;2022-09-29T05:06:34;97986.50;;;6.93;54.40
46714;BME280;32445;51.376;10.874;2022-09-29T05:09:38;97989.13;;;6.91;54.33
46714;BME280;32445;51.376;10.874;2022-09-29T05:12:38;97992.59;;;6.90;54.62
46714;BME280;32445;51.376;10.874;2022-09-29T05:15:39;97990.88;;;6.91;54.53
46714;BME280;32445;51.376;10.874;2022-09-29T05:18:39;98001.31;;;6.88;54.76
46714;BME280;32445;51.376;10.874;2022-09-29T05:21:39;97996.94;;;6.90;54.78
46714;BME280;32445;51.376;10.874;2022-09-29T05:24:40;97998.69;;;6.89;54.59
46714;BME280;32445;51.376;10.874;2022-09-29T05:27:40;98003.78;;;6.91;54.46
46714;BME280;32445;51.376;10.874;2022-09-29T05:30:41;98000.34;;;6.90;54.73
46714;BME280;32445;51.376;10.874;2022-09-29T05:33:42;98012.34;;;6.91;54.36
46714;BME280;32445;51.376;10.874;2022-09-29T05:36:42;98002.88;;;6.92;54.36
46714;BME280;32445;51.376;10.874;2022-09-29T05:39:43;98013.16;;;6.93;54.65
46714;BME280;32445;51.376;10.874;2022-09-29T05:42:44;98016.56;;;6.94;54.51
46714;BME280;32445;51.376;10.874;2022-09-29T05:45:45;98022.50;;;6.96;54.41
46714;BME280;32445;51.376;10.874;2022-09-29T05:48:46;98015.63;;;6.97;54.72
46714;BME280;32445;51.376;10.874;2022-09-29T05:51:46;98018.13;;;6.98;54.77
46714;BME280;32445;51.376;10.874;2022-09-29T05:54:47;98025.78;;;7.01;54.70
46714;BME280;32445;51.376;10.874;2022-09-29T05:57:50;98027.47;;;7.02;54.82
46714;BME280;32445;51.376;10.874;2022-09-29T06:00:50;98012.88;;;7.01;54.92
46714;BME280;32445;51.376;10.874;2022-09-29T06:03:54;98024.25;;;6.96;54.89
46714;BME280;32445;51.376;10.874;2022-09-29T06:06:54;98029.63;;;6.89;55.55
46714;BME280;32445;51.376;10.874;2022-09-29T06:09:56;98019.41;;;6.86;55.36
46714;BME280;32445;51.376;10.874;2022-09-29T06:12:56;98016.78;;;6.88;55.70
46714;BME280;32445;51.376;10.874;2022-09-29T06:15:58;98021.94;;;6.88;55.36
46714;BME280;32445;51.376;10.874;2022-09-29T06:18:59;98019.13;;;6.94;55.29
46714;BME280;32445;51.376;10.874;2022-09-29T06:22:00;98004.34;;;6.99;55.36
46714;BME280;32445;51.376;10.874;2022-09-29T06:25:00;98018.13;;;6.98;55.33
46714;BME280;32445;51.376;10.874;2022-09-29T06:28:01;98006.13;;;6.97;55.57
46714;BME280;32445;51.376;10.874;2022-09-29T06:31:07;98011.06;;;7.03;55.13
46714;BME280;32445;51.376;10.874;2022-09-29T06:34:09;98009.22;;;7.07;55.38
46714;BME280;32445;51.376;10.874;2022-09-29T06:37:09;98015.16;;;7.09;55.69
46714;BME280;32445;51.376;10.874;2022-09-29T06:40:28;98011.56;;;7.13;56.01
46714;BME280;32445;51.376;10.874;2022-09-29T06:43:28;98018.25;;;7.19;55.49
46714;BME280;32445;51.376;10.874;2022-09-29T06:46:29;98011.19;;;7.24;55.65
46714;BME280;32445;51.376;10.874;2022-09-29T06:49:29;98015.31;;;7.30;55.80
46714;BME280;32445;51.376;10.874;2022-09-29T06:52:29;98022.19;;;7.29;55.96
46714;BME280;32445;51.376;10.874;2022-09-29T06:55:30;98014.38;;;7.31;55.91
46714;BME280;32445;51.376;10.874;2022-09-29T06:58:30;98020.28;;;7.34;55.57
46714;BME280;32445;51.376;10.874;2022-09-29T07:01:31;98024.50;;;7.37;55.49
46714;BME280;32445;51.376;10.874;2022-09-29T07:04:31;98015.75;;;7.41;55.51
46714;BME280;32445;51.376;10.874;2022-09-29T07:07:32;98025.38;;;7.36;56.51
46714;BME280;32445;51.376;10.874;2022-09-29T07:10:32;98020.34;;;7.33;56.67
46714;BME280;32445;51.376;10.874;2022-09-29T07:13:33;98023.03;;;7.30;56.76
46714;BME280;32445;51.376;10.874;2022-09-29T07:16:34;98021.41;;;7.27;56.86
46714;BME280;32445;51.376;10.874;2022-09-29T07:19:34;98023.03;;;7.30;57.07
46714;BME280;32445;51.376;10.874;2022-09-29T07:22:35;98024.88;;;7.26;57.88
46714;BME280;32445;51.376;10.874;2022-09-29T07:25:35;98024.22;;;7.21;57.95
46714;BME280;32445;51.376;10.874;2022-09-29T07:28:36;98027.53;;;7.24;58.31
46714;BME280;32445;51.376;10.874;2022-09-29T07:31:37;98028.31;;;7.26;58.01
46714;BME280;32445;51.376;10.874;2022-09-29T07:34:38;98033.31;;;7.31;58.62
46714;BME280;32445;51.376;10.874;2022-09-29T07:37:38;98034.81;;;7.37;58.26
46714;BME280;32445;51.376;10.874;2022-09-29T07:40:39;98031.25;;;7.41;58.41
46714;BME280;32445;51.376;10.874;2022-09-29T07:43:39;98047.38;;;7.46;58.38
46714;BME280;32445;51.376;10.874;2022-09-29T07:46:40;98044.75;;;7.48;59.21
46714;BME280;32445;51.376;10.874;2022-09-29T07:49:41;98045.72;;;7.45;59.36
46714;BME280;32445;51.376;10.874;2022-09-29T07:52:41;98043.91;;;7.47;59.13
46714;BME280;32445;51.376;10.874;2022-09-29T07:55:42;98042.91;;;7.51;59.56
46714;BME280;32445;51.376;10.874;2022-09-29T07:58:43;98047.72;;;7.60;59.08
46714;BME280;32445;51.376;10.874;2022-09-29T08:01:43;98052.59;;;7.68;59.25
46714;BME280;32445;51.376;10.874;2022-09-29T08:04:44;98053.38;;;7.70;59.61
46714;BME280;32445;51.376;10.874;2022-09-29T08:07:50;98054.19;;;7.72;59.89
46714;BME280;32445;51.376;10.874;2022-09-29T08:10:50;98056.56;;;7.77;60.01
46714;BME280;32445;51.376;10.874;2022-09-29T08:13:51;98068.78;;;7.95;60.28
46714;BME280;32445;51.376;10.874;2022-09-29T08:16:55;98063.13;;;8.08;59.44
46714;BME280;32445;51.376;10.874;2022-09-29T08:19:55;98060.25;;;8.16;59.83
46714;BME280;32445;51.376;10.874;2022-09-29T08:22:57;98060.75;;;8.25;59.47
46714;BME280;32445;51.376;10.874;2022-09-29T08:26:02;98053.34;;;8.38;59.11
46714;BME280;32445;51.376;10.874;2022-09-29T08:29:03;98065.03;;;8.48;59.68
46714;BME280;32445;51.376;10.874;2022-09-29T08:32:03;98070.75;;;8.55;59.65
46714;BME280;32445;51.376;10.874;2022-09-29T08:35:04;98071.63;;;8.56;60.22
46714;BME280;32445;51.376;10.874;2022-09-29T08:38:05;98069.09;;;8.54;61.25
46714;BME280;32445;51.376;10.874;2022-09-29T08:41:05;98069.03;;;8.56;61.97
46714;BME280;32445;51.376;10.874;2022-09-29T08:44:11;98078.47;;;8.57;62.85
46714;BME280;32445;51.376;10.874;2022-09-29T08:47:24;98073.06;;;8.63;62.79
46714;BME280;32445;51.376;10.874;2022-09-29T08:50:34;98076.03;;;8.74;62.42
46714;BME280;32445;51.376;10.874;2022-09-29T08:53:41;98082.63;;;8.81;62.56
46714;BME280;32445;51.376;10.874;2022-09-29T08:56:44;98074.75;;;8.85;63.33
46714;BME280;32445;51.376;10.874;2022-09-29T09:19:20;98085.34;;;9.59;63.96
46714;BME280;32445;51.376;10.874;2022-09-29T09:22:40;98090.59;;;9.77;64.40
46714;BME280;32445;51.376;10.874;2022-09-29T09:25:58;98095.84;;;9.94;64.55
46714;BME280;32445;51.376;10.874;2022-09-29T09:29:03;98100.09;;;10.14;64.18
46714;BME280;32445;51.376;10.874;2022-09-29T09:32:27;98095.78;;;10.32;64.16
46714;BME280;32445;51.376;10.874;2022-09-29T09:35:40;98095.25;;;10.45;63.56
46714;BME280;32445;51.376;10.874;2022-09-29T09:38:51;98094.28;;;10.65;63.55
46714;BME280;32445;51.376;10.874;2022-09-29T09:41:55;98097.72;;;10.83;63.04
46714;BME280;32445;51.376;10.874;2022-09-29T09:45:02;98102.16;;;10.98;63.38
46714;BME280;32445;51.376;10.874;2022-09-29T09:48:34;98092.50;;;11.18;63.37
46714;BME280;32445;51.376;10.874;2022-09-29T09:54:54;98086.47;;;11.51;62.11
46714;BME280;32445;51.376;10.874;2022-09-29T10:01:46;98089.22;;;11.81;61.53
46714;BME280;32445;51.376;10.874;2022-09-29T10:04:50;98096.38;;;11.93;61.43
46714;BME280;32445;51.376;10.874;2022-09-29T10:07:52;98091.00;;;12.13;60.84
46714;BME280;32445;51.376;10.874;2022-09-29T10:10:53;98095.75;;;12.36;60.11
46714;BME280;32445;51.376;10.874;2022-09-29T10:14:11;98099.84;;;12.56;59.91
46714;BME280;32445;51.376;10.874;2022-09-29T10:17:13;98087.47;;;12.76;59.13
46714;BME280;32445;51.376;10.874;2022-09-29T10:20:31;98077.56;;;12.97;58.85
46714;BME280;32445;51.376;10.874;2022-09-29T10:23:33;98088.84;;;13.26;58.72
46714;BME280;32445;51.376;10.874;2022-09-29T10:26:45;98088.44;;;13.48;58.11
46714;BME280;32445;51.376;10.874;2022-09-29T10:29:47;98089.63;;;13.72;57.19
46714;BME280;32445;51.376;10.874;2022-09-29T10:32:56;98084.47;;;13.99;56.77
46714;BME280;32445;51.376;10.874;2022-09-29T10:36:07;98095.34;;;14.20;56.04
46714;BME280;32445;51.376;10.874;2022-09-29T10:39:41;98094.44;;;14.34;55.46
46714;BME280;32445;51.376;10.874;2022-09-29T10:42:44;98091.34;;;14.42;54.88
46714;BME280;32445;51.376;10.874;2022-09-29T10:45:49;98097.94;;;14.47;54.70
46714;BME280;32445;51.376;10.874;2022-09-29T10:49:40;98102.13;;;14.50;54.29
46714;BME280;32445;51.376;10.874;2022-09-29T10:52:33;98103.41;;;14.57;53.79
46714;BME280;32445;51.376;10.874;2022-09-29T10:55:46;98108.72;;;14.56;54.14
46714;BME280;32445;51.376;10.874;2022-09-29T10:58:53;98100.41;;;14.63;53.91
46714;BME280;32445;51.376;10.874;2022-09-29T11:01:58;98101.34;;;14.62;54.08
46714;BME280;32445;51.376;10.874;2022-09-29T11:05:03;98106.84;;;14.58;54.17
46714;BME280;32445;51.376;10.874;2022-09-29T11:08:10;98105.28;;;14.55;54.00
46714;BME280;32445;51.376;10.874;2022-09-29T11:11:25;98111.41;;;14.54;54.05
46714;BME280;32445;51.376;10.874;2022-09-29T11:14:30;98108.09;;;14.52;54.40
46714;BME280;32445;51.376;10.874;2022-09-29T11:17:36;98113.50;;;14.49;54.44
46714;BME280;32445;51.376;10.874;2022-09-29T11:20:37;98112.75;;;14.47;54.35
46714;BME280;32445;51.376;10.874;2022-09-29T11:23:48;98111.94;;;14.46;53.97
46714;BME280;32445;51.376;10.874;2022-09-29T11:30:14;98118.72;;;14.49;54.48
46714;BME280;32445;51.376;10.874;2022-09-29T11:43:32;98128.63;;;14.44;54.57
46714;BME280;32445;51.376;10.874;2022-09-29T11:59:45;98132.28;;;14.68;54.06
46714;BME280;32445;51.376;10.874;2022-09-29T12:06:06;98134.50;;;14.75;54.63
46714;BME280;32445;51.376;10.874;2022-09-29T12:12:59;98133.28;;;14.80;55.06
46714;BME280;32445;51.376;10.874;2022-09-29T12:16:12;98127.84;;;14.83;54.93
46714;BME280;32445;51.376;10.874;2022-09-29T12:19:17;98125.03;;;14.86;54.88
46714;BME280;32445;51.376;10.874;2022-09-29T12:22:19;98126.50;;;14.91;54.59
46714;BME280;32445;51.376;10.874;2022-09-29T12:25:24;98124.63;;;14.93;54.59
46714;BME280;32445;51.376;10.874;2022-09-29T12:28:31;98130.59;;;14.95;54.22
46714;BME280;32445;51.376;10.874;2022-09-29T12:31:38;98134.97;;;14.94;54.19
46714;BME280;32445;51.376;10.874;2022-09-29T12:37:50;98125.16;;;14.98;54.14
46714;BME280;32445;51.376;10.874;2022-09-29T12:41:13;98123.28;;;15.00;54.03
46714;BME280;32445;51.376;10.874;2022-09-29T12:44:38;98130.19;;;15.01;54.02
46714;BME280;32445;51.376;10.874;2022-09-29T12:51:02;98129.59;;;15.10;53.85
46714;BME280;32445;51.376;10.874;2022-09-29T12:54:13;98130.09;;;15.15;53.39
46714;BME280;32445;51.376;10.874;2022-09-29T12:57:20;98129.16;;;15.16;53.97
46714;BME280;32445;51.376;10.874;2022-09-29T13:00:24;98139.94;;;15.25;53.66
46714;BME280;32445;51.376;10.874;2022-09-29T13:03:55;98129.06;;;15.31;53.73
46714;BME280;32445;51.376;10.874;2022-09-29T13:20:27;98120.19;;;15.85;52.45
46714;BME280;32445;51.376;10.874;2022-09-29T13:23:46;98117.81;;;16.06;53.88
46714;BME280;32445;51.376;10.874;2022-09-29T13:27:27;98119.53;;;16.31;51.48
46714;BME280;32445;51.376;10.874;2022-09-29T13:30:33;98120.59;;;16.53;50.53
46714;BME280;32445;51.376;10.874;2022-09-29T13:33:36;98117.63;;;16.82;50.11
46714;BME280;32445;51.376;10.874;2022-09-29T13:36:38;98117.72;;;17.04;50.34
46714;BME280;32445;51.376;10.874;2022-09-29T13:39:51;98128.16;;;17.28;49.08
46714;BME280;32445;51.376;10.874;2022-09-29T13:42:54;98116.25;;;17.47;48.58
46714;BME280;32445;51.376;10.874;2022-09-29T13:45:55;98106.97;;;17.66;47.32
46714;BME280;32445;51.376;10.874;2022-09-29T13:59:12;98117.13;;;18.48;46.41
46714;BME280;32445;51.376;10.874;2022-09-29T14:02:26;98119.59;;;18.61;46.95
46714;BME280;32445;51.376;10.874;2022-09-29T14:08:30;98122.41;;;18.80;45.35
46714;BME280;32445;51.376;10.874;2022-09-29T14:11:37;98121.91;;;18.87;44.23
46714;BME280;32445;51.376;10.874;2022-09-29T14:14:43;98122.53;;;18.90;44.16
46714;BME280;32445;51.376;10.874;2022-09-29T14:17:50;98119.13;;;18.99;43.87
46714;BME280;32445;51.376;10.874;2022-09-29T14:21:04;98122.72;;;18.98;43.49
46714;BME280;32445;51.376;10.874;2022-09-29T14:27:43;98132.28;;;19.21;43.09
46714;BME280;32445;51.376;10.874;2022-09-29T14:30:51;98134.03;;;19.31;43.08
46714;BME280;32445;51.376;10.874;2022-09-29T14:33:54;98133.50;;;19.38;43.03
46714;BME280;32445;51.376;10.874;2022-09-29T14:36:56;98127.16;;;19.40;42.26
46714;BME280;32445;51.376;10.874;2022-09-29T14:39:58;98138.50;;;19.41;42.47
46714;BME280;32445;51.376;10.874;2022-09-29T14:43:18;98141.72;;;19.44;42.86
46714;BME280;32445;51.376;10.874;2022-09-29T14:53:27;98151.84;;;19.49;44.25
46714;BME280;32445;51.376;10.874;2022-09-29T14:56:51;98150.03;;;19.49;43.69
46714;BME280;32445;51.376;10.874;2022-09-29T15:00:05;98149.06;;;19.50;43.19
46714;BME280;32445;51.376;10.874;2022-09-29T15:03:07;98156.13;;;19.50;43.81
46714;BME280;32445;51.376;10.874;2022-09-29T15:06:21;98161.38;;;19.50;42.99
46714;BME280;32445;51.376;10.874;2022-09-29T15:09:23;98166.41;;;19.53;42.64
46714;BME280;32445;51.376;10.874;2022-09-29T15:12:26;98172.16;;;19.47;42.11
46714;BME280;32445;51.376;10.874;2022-09-29T15:15:36;98173.78;;;19.38;41.86
46714;BME280;32445;51.376;10.874;2022-09-29T15:18:54;98172.25;;;19.35;42.21
46714;BME280;32445;51.376;10.874;2022-09-29T15:25:26;98182.88;;;19.34;42.86
46714;BME280;32445;51.376;10.874;2022-09-29T15:28:36;98185.78;;;19.31;43.39
46714;BME280;32445;51.376;10.874;2022-09-29T15:31:37;98192.84;;;19.30;43.07
46714;BME280;32445;51.376;10.874;2022-09-29T15:34:38;98192.97;;;19.29;43.92
46714;BME280;32445;51.376;10.874;2022-09-29T15:40:52;98199.72;;;19.22;43.88
46714;BME280;32445;51.376;10.874;2022-09-29T15:43:59;98191.81;;;19.22;43.95
46714;BME280;32445;51.376;10.874;2022-09-29T15:47:00;98204.25;;;19.19;43.66
46714;BME280;32445;51.376;10.874;2022-09-29T15:50:04;98200.19;;;19.15;43.37
46714;BME280;32445;51.376;10.874;2022-09-29T15:53:15;98206.69;;;19.11;43.24
46714;BME280;32445;51.376;10.874;2022-09-29T15:56:15;98207.06;;;19.07;43.67
46714;BME280;32445;51.376;10.874;2022-09-29T15:59:17;98211.00;;;19.01;43.10
46714;BME280;32445;51.376;10.874;2022-09-29T16:02:23;98217.47;;;18.97;43.41
46714;BME280;32445;51.376;10.874;2022-09-29T16:05:25;98223.25;;;18.91;43.82
46714;BME280;32445;51.376;10.874;2022-09-29T16:08:27;98226.34;;;18.84;44.18
46714;BME280;32445;51.376;10.874;2022-09-29T16:11:34;98233.88;;;18.78;44.37
46714;BME280;32445;51.376;10.874;2022-09-29T16:14:35;98235.34;;;18.71;44.16
46714;BME280;32445;51.376;10.874;2022-09-29T16:17:35;98244.53;;;18.65;44.52
46714;BME280;32445;51.376;10.874;2022-09-29T16:20:36;98240.75;;;18.58;44.57
46714;BME280;32445;51.376;10.874;2022-09-29T16:23:41;98249.13;;;18.52;44.74
46714;BME280;32445;51.376;10.874;2022-09-29T16:26:50;98249.00;;;18.42;44.85
46714;BME280;32445;51.376;10.874;2022-09-29T16:30:04;98253.19;;;18.33;45.22
46714;BME280;32445;51.376;10.874;2022-09-29T16:33:14;98258.06;;;18.26;45.25
46714;BME280;32445;51.376;10.874;2022-09-29T16:36:23;98257.72;;;18.20;45.33
46714;BME280;32445;51.376;10.874;2022-09-29T16:39:27;98266.19;;;18.12;45.47
46714;BME280;32445;51.376;10.874;2022-09-29T16:42:28;98265.09;;;18.03;45.55
46714;BME280;32445;51.376;10.874;2022-09-29T16:45:29;98264.84;;;17.95;45.57
46714;BME280;32445;51.376;10.874;2022-09-29T16:48:35;98270.78;;;17.86;45.72
46714;BME280;32445;51.376;10.874;2022-09-29T16:51:42;98281.25;;;17.74;45.64
46714;BME280;32445;51.376;10.874;2022-09-29T16:54:45;98287.91;;;17.67;46.03
46714;BME280;32445;51.376;10.874;2022-09-29T17:00:58;98292.72;;;17.49;46.06
46714;BME280;32445;51.376;10.874;2022-09-29T17:03:58;98299.50;;;17.40;46.05
46714;BME280;32445;51.376;10.874;2022-09-29T17:06:58;98304.47;;;17.32;45.77
46714;BME280;32445;51.376;10.874;2022-09-29T17:10:00;98316.47;;;17.23;46.18
46714;BME280;32445;51.376;10.874;2022-09-29T17:13:00;98311.91;;;17.14;45.91
46714;BME280;32445;51.376;10.874;2022-09-29T17:16:04;98314.34;;;17.04;46.11
46714;BME280;32445;51.376;10.874;2022-09-29T17:19:08;98320.25;;;16.95;45.88
46714;BME280;32445;51.376;10.874;2022-09-29T17:22:21;98326.31;;;16.83;46.05
46714;BME280;32445;51.376;10.874;2022-09-29T17:25:23;98326.88;;;16.75;46.14
46714;BME280;32445;51.376;10.874;2022-09-29T17:28:23;98332.75;;;16.66;46.29
46714;BME280;32445;51.376;10.874;2022-09-29T17:31:24;98342.19;;;16.55;46.11
46714;BME280;32445;51.376;10.874;2022-09-29T17:34:25;98346.28;;;16.47;46.11
46714;BME280;32445;51.376;10.874;2022-09-29T17:37:28;98346.91;;;16.37;46.10
46714;BME280;32445;51.376;10.874;2022-09-29T17:43:38;98348.91;;;16.21;46.65
46714;BME280;32445;51.376;10.874;2022-09-29T17:46:40;98365.22;;;16.12;46.84
46714;BME280;32445;51.376;10.874;2022-09-29T17:49:42;98358.72;;;16.04;47.13
46714;BME280;32445;51.376;10.874;2022-09-29T17:52:43;98356.53;;;15.98;47.15
46714;BME280;32445;51.376;10.874;2022-09-29T17:55:46;98362.28;;;15.90;47.22
46714;BME280;32445;51.376;10.874;2022-09-29T17:58:48;98365.28;;;15.84;47.46
46714;BME280;32445;51.376;10.874;2022-09-29T18:01:48;98358.69;;;15.79;47.57
46714;BME280;32445;51.376;10.874;2022-09-29T18:04:49;98365.97;;;15.73;47.65
46714;BME280;32445;51.376;10.874;2022-09-29T18:07:51;98364.59;;;15.68;47.61
46714;BME280;32445;51.376;10.874;2022-09-29T18:10:56;98370.31;;;15.60;47.60
46714;BME280;32445;51.376;10.874;2022-09-29T18:13:57;98366.31;;;15.54;47.61
46714;BME280;32445;51.376;10.874;2022-09-29T18:16:57;98371.97;;;15.48;48.10
46714;BME280;32445;51.376;10.874;2022-09-29T18:19:57;98367.13;;;15.42;48.04
46714;BME280;32445;51.376;10.874;2022-09-29T18:22:58;98367.53;;;15.36;47.84
46714;BME280;32445;51.376;10.874;2022-09-29T18:26:00;98373.13;;;15.30;47.88
46714;BME280;32445;51.376;10.874;2022-09-29T18:29:16;98368.50;;;15.20;48.30
46714;BME280;32445;51.376;10.874;2022-09-29T18:32:18;98372.34;;;15.15;48.02
46714;BME280;32445;51.376;10.874;2022-09-29T18:35:21;98373.66;;;15.08;48.12
46714;BME280;32445;51.376;10.874;2022-09-29T18:38:22;98374.97;;;15.00;48.04
46714;BME280;32445;51.376;10.874;2022-09-29T18:41:22;98381.53;;;14.93;47.96
46714;BME280;32445;51.376;10.874;2022-09-29T18:44:23;98376.75;;;14.85;48.18
46714;BME280;32445;51.376;10.874;2022-09-29T18:47:28;98377.25;;;14.78;47.92
46714;BME280;32445;51.376;10.874;2022-09-29T18:50:36;98366.41;;;14.69;48.26
46714;BME280;32445;51.376;10.874;2022-09-29T18:53:42;98377.16;;;14.65;48.21
46714;BME280;32445;51.376;10.874;2022-09-29T18:56:42;98384.47;;;14.58;48.36